createdAt,value
2023-03-28T00:02:14.225Z,99439.31
2023-03-28T00:04:49.795Z,99447.25
2023-03-28T00:07:21.781Z,99444.75
2023-03-28T00:09:57.505Z,99455.06
2023-03-28T00:12:29.337Z,99450.78
2023-03-28T00:15:04.390Z,99447.34
2023-03-28T00:17:36.178Z,99457.88
2023-03-28T00:20:14.368Z,99461.53
2023-03-28T00:22:46.779Z,99453.63
2023-03-28T00:25:21.676Z,99453.16
2023-03-28T00:27:55.878Z,99457.09
2023-03-28T00:30:28.042Z,99460.75
2023-03-28T00:32:59.878Z,99449.28
2023-03-28T00:35:32.663Z,99448.66
2023-03-28T00:38:04.392Z,99444.88
2023-03-28T00:40:37.883Z,99446.91
2023-03-28T00:43:13.800Z,99447.63
2023-03-28T00:45:48.846Z,99447.63
2023-03-28T00:48:28.446Z,99453.22
2023-03-28T00:51:06.974Z,99450.47
2023-03-28T00:53:38.799Z,99445.41
2023-03-28T00:56:14.422Z,99445.41
2023-03-28T00:58:48.853Z,99439.00
2023-03-28T01:01:20.960Z,99435.06
2023-03-28T01:04:02.272Z,99436.84
2023-03-28T01:06:40.595Z,99435.06
2023-03-28T01:09:18.929Z,99437.56
2023-03-28T01:11:57.714Z,99427.16
2023-03-28T01:14:30.334Z,99431.19
2023-03-28T01:17:04.727Z,99432.84
2023-03-28T01:19:59.420Z,99443.38
2023-03-28T01:22:56.582Z,99441.72
2023-03-28T01:25:44.024Z,99448.34
2023-03-28T01:29:16.661Z,99449.53
2023-03-28T01:32:07.855Z,99450.38
2023-03-28T01:35:39.458Z,99451.78
2023-03-28T01:38:43.637Z,99446.72
2023-03-28T01:41:41.750Z,99453.47
2023-03-28T01:44:27.093Z,99442.94
2023-03-28T01:47:17.726Z,99443.75
2023-03-28T01:50:08.988Z,99444.03
2023-03-28T01:52:49.551Z,99456.81
2023-03-28T01:55:27.193Z,99452.44
2023-03-28T01:58:07.073Z,99444.38
2023-03-28T02:01:23.207Z,99427.78
2023-03-28T02:04:01.205Z,99431.94
2023-03-28T02:06:46.930Z,99423.06
2023-03-28T02:09:26.335Z,99420.13
2023-03-28T02:12:31.220Z,99435.63
2023-03-28T02:15:16.595Z,99434.69
2023-03-28T02:18:23.716Z,99438.84
2023-03-28T02:21:21.925Z,99419.50
2023-03-28T02:24:27.093Z,99425.81
2023-03-28T02:27:17.802Z,99430.41
2023-03-28T02:30:11.069Z,99433.75
2023-03-28T02:32:44.161Z,99424.34
2023-03-28T02:35:28.254Z,99426.38
2023-03-28T02:38:09.872Z,99431.59
2023-03-28T02:41:04.004Z,99437.75
2023-03-28T02:44:06.320Z,99436.09
2023-03-28T02:46:51.938Z,99442.75
2023-03-28T02:49:24.119Z,99447.81
2023-03-28T02:52:37.684Z,99458.75
2023-03-28T02:55:35.585Z,99473.94
2023-03-28T02:58:27.769Z,99470.63
2023-03-28T03:01:02.572Z,99475.56
2023-03-28T03:03:36.588Z,99471.19
2023-03-28T03:06:08.845Z,99465.59
2023-03-28T03:08:40.720Z,99458.25
2023-03-28T03:11:12.604Z,99471.50
2023-03-28T03:13:44.467Z,99466.19
2023-03-28T03:16:16.158Z,99470.56
2023-03-28T03:18:47.870Z,99465.22
2023-03-28T03:21:21.933Z,99471.75
2023-03-28T03:23:53.766Z,99456.47
2023-03-28T03:26:25.799Z,99462.91
2023-03-28T03:29:05.568Z,99462.91
2023-03-28T03:31:37.831Z,99461.84
2023-03-28T03:34:26.225Z,99459.84
2023-03-28T03:37:02.418Z,99462.69
2023-03-28T03:39:36.071Z,99468.13
2023-03-28T03:42:16.705Z,99467.91
2023-03-28T03:44:48.493Z,99477.03
2023-03-28T03:47:23.332Z,99475.75
2023-03-28T03:49:56.597Z,99477.88
2023-03-28T03:52:31.092Z,99472.75
2023-03-28T03:55:08.895Z,99479.50
2023-03-28T03:57:43.524Z,99485.53
2023-03-28T04:00:16.768Z,99494.53
2023-03-28T04:02:57.167Z,99495.84
2023-03-28T04:05:30.986Z,99492.41
2023-03-28T04:08:07.733Z,99499.00
2023-03-28T04:10:47.375Z,99491.88
2023-03-28T04:13:25.592Z,99492.44
2023-03-28T04:16:03.850Z,99491.69
2023-03-28T04:18:59.950Z,99501.41
2023-03-28T04:21:32.357Z,99485.38
2023-03-28T04:24:08.990Z,99489.63
2023-03-28T04:26:56.155Z,99498.72
2023-03-28T04:29:31.854Z,99500.63
2023-03-28T04:32:22.005Z,99497.78
2023-03-28T04:35:07.910Z,99507.84
2023-03-28T04:37:39.765Z,99510.38
2023-03-28T04:40:15.645Z,99519.00
2023-03-28T04:43:03.305Z,99523.50
2023-03-28T04:45:39.451Z,99528.00
2023-03-28T04:48:23.619Z,99541.22
2023-03-28T04:50:56.175Z,99537.00
2023-03-28T04:53:29.858Z,99542.91
2023-03-28T04:56:40.893Z,99549.28
2023-03-28T04:59:13.200Z,99539.69
2023-03-28T05:01:49.437Z,99543.78
2023-03-28T05:04:40.405Z,99545.88
2023-03-28T05:07:13.691Z,99546.66
2023-03-28T05:09:45.385Z,99540.59
2023-03-28T05:12:17.043Z,99542.88
2023-03-28T05:15:07.613Z,99559.34
2023-03-28T05:17:51.602Z,99535.16
2023-03-28T05:20:38.039Z,99559.88
2023-03-28T05:23:10.245Z,99562.59
2023-03-28T05:25:51.726Z,99571.75
2023-03-28T05:28:23.852Z,99586.13
2023-03-28T05:30:57.407Z,99558.84
2023-03-28T05:33:32.422Z,99581.06
2023-03-28T05:36:07.018Z,99606.47
2023-03-28T05:38:38.892Z,99617.41
2023-03-28T05:41:20.321Z,99625.94
2023-03-28T05:43:52.631Z,99625.13
2023-03-28T05:46:39.356Z,99647.28
2023-03-28T05:49:11.935Z,99649.34
2023-03-28T05:51:43.805Z,99662.16
2023-03-28T05:54:15.460Z,99654.22
2023-03-28T05:56:47.255Z,99672.53
2023-03-28T05:59:20.070Z,99660.69
2023-03-28T06:01:53.087Z,99654.00
2023-03-28T06:04:25.794Z,99659.72
2023-03-28T06:06:57.591Z,99662.19
2023-03-28T06:09:31.644Z,99668.91
2023-03-28T06:12:06.505Z,99658.84
2023-03-28T06:14:41.683Z,99667.78
2023-03-28T06:17:18.874Z,99665.13
2023-03-28T06:19:55.354Z,99680.41
2023-03-28T06:22:28.084Z,99698.81
2023-03-28T06:25:04.773Z,99697.88
2023-03-28T06:27:37.643Z,99696.66
2023-03-28T06:30:09.970Z,99692.13
2023-03-28T06:32:49.134Z,99690.22
2023-03-28T06:35:21.215Z,99696.78
2023-03-28T06:37:52.950Z,99702.09
2023-03-28T06:40:30.576Z,99707.31
2023-03-28T06:43:07.740Z,99709.06
2023-03-28T06:45:48.054Z,99714.09
2023-03-28T06:48:24.527Z,99727.91
2023-03-28T06:51:22.076Z,99723.63
2023-03-28T06:53:54.250Z,99721.81
2023-03-28T06:56:30.170Z,99728.22
2023-03-28T06:59:03.754Z,99742.03
2023-03-28T07:01:37.751Z,99742.88
2023-03-28T07:04:15.444Z,99749.28
2023-03-28T07:06:49.731Z,99751.16
2023-03-28T07:09:21.459Z,99755.84
2023-03-28T07:12:06.079Z,99757.00
2023-03-28T07:14:40.392Z,99761.97
2023-03-28T07:17:12.494Z,99764.69
2023-03-28T07:19:46.076Z,99773.63
2023-03-28T07:22:18.119Z,99779.69
2023-03-28T07:24:49.882Z,99780.03
2023-03-28T07:27:22.846Z,99791.00
2023-03-28T07:29:56.647Z,99782.16
2023-03-28T07:32:38.852Z,99788.28
2023-03-28T07:35:14.912Z,99794.78
2023-03-28T07:37:52.290Z,99791.75
2023-03-28T07:40:53.407Z,99799.88
2023-03-28T07:43:26.312Z,99800.44
2023-03-28T07:46:03.633Z,99806.47
2023-03-28T07:48:36.956Z,99806.63
2023-03-28T07:51:10.048Z,99805.63
2023-03-28T07:53:42.414Z,99803.78
2023-03-28T07:56:14.185Z,99811.28
2023-03-28T07:59:05.606Z,99815.47
2023-03-28T08:01:37.904Z,99818.78
2023-03-28T08:04:12.128Z,99827.38
2023-03-28T08:06:58.050Z,99827.59
2023-03-28T08:09:30.104Z,99838.56
2023-03-28T08:12:29.435Z,99840.53
2023-03-28T08:15:05.484Z,99845.19
2023-03-28T08:17:38.100Z,99853.63
2023-03-28T08:20:12.188Z,99851.41
2023-03-28T08:23:03.836Z,99848.53
2023-03-28T08:25:47.981Z,99855.19
2023-03-28T08:28:23.143Z,99864.72
2023-03-28T08:30:54.878Z,99859.63
2023-03-28T08:33:26.806Z,99866.81
2023-03-28T08:35:58.650Z,99869.59
2023-03-28T08:38:31.625Z,99859.84
2023-03-28T08:41:43.704Z,99861.25
2023-03-28T08:44:27.173Z,99865.19
2023-03-28T08:47:10.764Z,99863.13
2023-03-28T08:49:48.830Z,99868.38
2023-03-28T08:52:21.410Z,99861.09
2023-03-28T08:55:02.470Z,99875.38
2023-03-28T08:57:36.031Z,99871.06
2023-03-28T09:00:15.389Z,99869.97
2023-03-28T09:02:48.585Z,99882.22
2023-03-28T09:05:38.130Z,99892.91
2023-03-28T09:08:48.330Z,99893.53
2023-03-28T09:11:54.238Z,99899.22
2023-03-28T09:14:41.854Z,99893.25
2023-03-28T09:17:34.853Z,99906.13
2023-03-28T09:20:37.063Z,99899.00
2023-03-28T09:23:27.858Z,99907.06
2023-03-28T09:27:27.111Z,99912.66
2023-03-28T09:30:27.312Z,99915.41
2023-03-28T09:33:03.258Z,99910.81
2023-03-28T09:35:35.358Z,99915.28
2023-03-28T09:38:18.090Z,99918.03
2023-03-28T09:40:55.518Z,99907.75
2023-03-28T09:43:30.873Z,99911.94
2023-03-28T09:46:18.818Z,99912.34
2023-03-28T09:49:41.024Z,99904.75
2023-03-28T09:52:19.747Z,99907.91
2023-03-28T09:54:51.733Z,99909.75
2023-03-28T09:57:26.465Z,99906.13
2023-03-28T10:00:21.068Z,99909.19
2023-03-28T10:03:29.329Z,99924.97
2023-03-28T10:06:27.662Z,99920.63
2023-03-28T10:09:31.628Z,99917.88
2023-03-28T10:12:11.396Z,99910.94
2023-03-28T10:15:04.311Z,99916.78
2023-03-28T10:18:17.641Z,99914.63
2023-03-28T10:20:53.772Z,99915.94
2023-03-28T10:23:25.687Z,99913.09
2023-03-28T10:26:03.415Z,99927.50
2023-03-28T10:28:36.528Z,99929.38
2023-03-28T10:31:21.451Z,99924.84
2023-03-28T10:33:53.200Z,99939.94
2023-03-28T10:36:57.037Z,99931.94
2023-03-28T10:39:37.444Z,99933.41
2023-03-28T10:42:43.933Z,99936.16
2023-03-28T10:45:42.505Z,99925.00
2023-03-28T10:48:22.876Z,99948.22
2023-03-28T10:50:58.466Z,99947.44
2023-03-28T10:54:02.362Z,99939.81
2023-03-28T10:56:52.654Z,99950.69
2023-03-28T10:59:54.963Z,99958.25
2023-03-28T11:02:49.990Z,99954.34
2023-03-28T11:06:05.867Z,99951.03
2023-03-28T11:09:04.725Z,99943.03
2023-03-28T11:11:53.312Z,99929.75
2023-03-28T11:14:43.109Z,99948.94
2023-03-28T11:17:45.647Z,99937.69
2023-03-28T11:20:44.471Z,99949.13
2023-03-28T11:23:38.139Z,99961.25
2023-03-28T11:26:47.702Z,99936.16
2023-03-28T11:29:51.644Z,99949.09
2023-03-28T11:32:40.459Z,99946.81
2023-03-28T11:35:28.977Z,99948.25
2023-03-28T11:38:14.982Z,99931.31
2023-03-28T11:41:22.346Z,99939.47
2023-03-28T11:44:22.655Z,99941.41
2023-03-28T11:47:21.675Z,99949.31
2023-03-28T11:50:16.359Z,99951.38
2023-03-28T11:53:27.131Z,99936.69
2023-03-28T11:56:32.260Z,99944.22
2023-03-28T11:59:35.686Z,99951.22
2023-03-28T12:02:18.642Z,99949.81
2023-03-28T12:05:15.654Z,99945.31
2023-03-28T12:07:54.675Z,99948.22
2023-03-28T12:10:39.896Z,99948.28
2023-03-28T12:13:46.287Z,99964.47
2023-03-28T12:16:24.174Z,99951.41
2023-03-28T12:19:01.426Z,99943.16
2023-03-28T12:21:55.614Z,99955.94
2023-03-28T12:24:49.713Z,99932.81
2023-03-28T12:27:42.215Z,99947.91
2023-03-28T12:30:22.777Z,99948.75
2023-03-28T12:33:15.175Z,99946.78
2023-03-28T12:36:11.057Z,99944.28
2023-03-28T12:39:00.433Z,99937.06
2023-03-28T12:41:43.185Z,99920.53
2023-03-28T12:44:24.875Z,99940.84
2023-03-28T12:47:10.850Z,99949.59
2023-03-28T12:50:01.364Z,99942.00
2023-03-28T12:52:36.499Z,99940.75
2023-03-28T12:55:26.237Z,99949.53
2023-03-28T12:58:34.205Z,99931.91
2023-03-28T13:01:20.839Z,99929.19
2023-03-28T13:04:21.991Z,99939.16
2023-03-28T13:07:18.265Z,99928.84
2023-03-28T13:10:01.321Z,99929.38
2023-03-28T13:12:35.701Z,99942.59
2023-03-28T13:15:13.107Z,99933.06
2023-03-28T13:18:09.199Z,99932.53
2023-03-28T13:20:46.042Z,99940.94
2023-03-28T13:23:32.099Z,99936.34
2023-03-28T13:26:07.393Z,99939.69
2023-03-28T13:28:45.555Z,99948.75
2023-03-28T13:31:20.110Z,99936.34
2023-03-28T13:34:01.777Z,99934.25
2023-03-28T13:36:35.532Z,99929.09
2023-03-28T13:39:25.401Z,99929.53
2023-03-28T13:41:58.692Z,99933.09
2023-03-28T13:44:42.799Z,99934.63
2023-03-28T13:47:25.316Z,99933.88
2023-03-28T13:50:07.034Z,99931.75
2023-03-28T13:52:39.330Z,99939.03
2023-03-28T13:55:29.400Z,99933.38
2023-03-28T13:58:01.977Z,99935.31
2023-03-28T14:00:33.654Z,99933.22
2023-03-28T14:03:11.826Z,99928.38
2023-03-28T14:05:45.694Z,99945.91
2023-03-28T14:08:17.539Z,99943.38
2023-03-28T14:10:52.251Z,99932.31
2023-03-28T14:13:26.286Z,99926.34
2023-03-28T14:15:58.249Z,99943.13
2023-03-28T14:18:56.759Z,99939.09
2023-03-28T14:21:28.535Z,99932.13
2023-03-28T14:24:04.613Z,99933.06
2023-03-28T14:26:39.317Z,99931.44
2023-03-28T14:29:11.776Z,99919.66
2023-03-28T14:31:48.616Z,99918.44
2023-03-28T14:34:35.208Z,99929.94
2023-03-28T14:37:19.640Z,99929.94
2023-03-28T14:39:52.631Z,99923.13
2023-03-28T14:42:27.370Z,99935.22
2023-03-28T14:44:58.919Z,99927.75
2023-03-28T14:47:35.504Z,99928.88
2023-03-28T14:50:14.114Z,99937.19
2023-03-28T14:52:46.946Z,99930.69
2023-03-28T14:55:22.764Z,99933.91
2023-03-28T14:57:55.834Z,99922.94
2023-03-28T15:00:49.984Z,99926.31
2023-03-28T15:03:43.754Z,99928.16
2023-03-28T15:06:17.538Z,99919.97
2023-03-28T15:08:49.752Z,99932.22
2023-03-28T15:11:37.180Z,99941.81
2023-03-28T15:14:11.669Z,99939.09
2023-03-28T15:16:45.648Z,99941.22
2023-03-28T15:19:33.796Z,99941.47
2023-03-28T15:22:12.501Z,99935.53
2023-03-28T15:24:46.555Z,99954.88
2023-03-28T15:27:31.917Z,99950.03
2023-03-28T15:30:06.727Z,99945.88
2023-03-28T15:32:38.576Z,99955.28
2023-03-28T15:35:40.869Z,99946.13
2023-03-28T15:38:12.548Z,99952.25
2023-03-28T15:40:47.185Z,99955.69
2023-03-28T15:43:50.296Z,99938.81
2023-03-28T15:46:29.256Z,99961.38
2023-03-28T15:49:03.176Z,99953.34
2023-03-28T15:51:49.108Z,99965.78
2023-03-28T15:54:31.488Z,99961.34
2023-03-28T15:57:04.041Z,99961.63
2023-03-28T15:59:40.031Z,99967.97
2023-03-28T16:02:21.541Z,99970.47
2023-03-28T16:05:16.362Z,99963.28
2023-03-28T16:07:50.682Z,99973.81
2023-03-28T16:10:25.233Z,99956.38
2023-03-28T16:13:22.796Z,99964.06
2023-03-28T16:16:18.969Z,99965.03
2023-03-28T16:18:59.460Z,99965.44
2023-03-28T16:21:31.347Z,99972.78
2023-03-28T16:24:05.546Z,99975.25
2023-03-28T16:26:37.468Z,99982.13
2023-03-28T16:29:11.421Z,99978.50
2023-03-28T16:31:43.568Z,99988.00
2023-03-28T16:34:15.257Z,99996.28
2023-03-28T16:36:46.995Z,99998.97
2023-03-28T16:39:18.682Z,99995.09
2023-03-28T16:41:50.658Z,99991.06
2023-03-28T16:44:22.403Z,100000.72
2023-03-28T16:46:55.022Z,99999.06
2023-03-28T16:49:27.201Z,100003.88
2023-03-28T16:51:59.065Z,100007.25
2023-03-28T16:54:30.823Z,100003.00
2023-03-28T16:57:02.675Z,100006.41
2023-03-28T16:59:34.539Z,100010.03
2023-03-28T17:02:07.710Z,100007.66
2023-03-28T17:04:39.430Z,100012.56
2023-03-28T17:07:11.139Z,100015.31
2023-03-28T17:09:43.215Z,100007.97
2023-03-28T17:12:14.965Z,100015.84
2023-03-28T17:14:47.369Z,100010.34
2023-03-28T17:17:19.614Z,100013.22
2023-03-28T17:19:54.322Z,100012.25
2023-03-28T17:22:26.203Z,100005.88
2023-03-28T17:25:00.868Z,100016.59
2023-03-28T17:27:32.568Z,100011.53
2023-03-28T17:30:06.110Z,100007.22
2023-03-28T17:32:38.029Z,100010.34
2023-03-28T17:35:12.256Z,100018.88
2023-03-28T17:37:49.074Z,100005.75
2023-03-28T17:40:21.080Z,100007.53
2023-03-28T17:42:52.944Z,100005.50
2023-03-28T17:45:26.366Z,100010.06
2023-03-28T17:47:58.172Z,100010.06
2023-03-28T17:50:29.962Z,100012.41
2023-03-28T17:53:02.202Z,100012.97
2023-03-28T17:55:34.321Z,100016.31
2023-03-28T17:58:06.242Z,100011.63
2023-03-28T18:00:38.472Z,100016.78
2023-03-28T18:03:10.350Z,100014.41
2023-03-28T18:06:03.742Z,100015.38
2023-03-28T18:08:36.031Z,100017.41
2023-03-28T18:11:16.921Z,100016.44
2023-03-28T18:13:48.831Z,100022.06
2023-03-28T18:16:20.656Z,100021.72
2023-03-28T18:18:54.320Z,100021.84
2023-03-28T18:21:26.275Z,100022.69
2023-03-28T18:23:59.313Z,100020.78
2023-03-28T18:26:31.598Z,100022.44
2023-03-28T18:29:03.922Z,100015.31
2023-03-28T18:31:36.917Z,100015.94
2023-03-28T18:34:08.746Z,100014.66
2023-03-28T18:36:45.502Z,100024.91
2023-03-28T18:39:17.364Z,100018.00
2023-03-28T18:41:51.079Z,100023.50
2023-03-28T18:44:22.912Z,100027.03
2023-03-28T18:46:55.439Z,100022.53
2023-03-28T18:49:30.924Z,100018.94
2023-03-28T18:52:05.421Z,100016.09
2023-03-28T18:54:37.641Z,100013.69
2023-03-28T18:57:09.463Z,100017.41
2023-03-28T18:59:41.828Z,100012.38
2023-03-28T19:02:17.547Z,100012.16
2023-03-28T19:04:49.504Z,100013.22
2023-03-28T19:07:21.521Z,100017.63
2023-03-28T19:09:53.745Z,100020.63
2023-03-28T19:12:27.028Z,100016.59
2023-03-28T19:14:58.723Z,100015.75
2023-03-28T19:17:33.489Z,100013.50
2023-03-28T19:20:12.657Z,100021.22
2023-03-28T19:22:44.474Z,100013.63
2023-03-28T19:25:16.395Z,100013.38
2023-03-28T19:27:50.416Z,100013.50
2023-03-28T19:30:22.204Z,100009.44
2023-03-28T19:32:53.933Z,100010.88
2023-03-28T19:35:25.930Z,99995.97
2023-03-28T19:37:58.330Z,99997.78
2023-03-28T19:40:30.312Z,100008.63
2023-03-28T19:43:02.720Z,100006.25
2023-03-28T19:45:39.804Z,100010.88
2023-03-28T19:48:11.435Z,100008.41
2023-03-28T19:50:43.761Z,100013.84
2023-03-28T19:53:15.672Z,100012.81
2023-03-28T19:55:53.664Z,100015.06
2023-03-28T19:58:25.877Z,100017.69
2023-03-28T20:00:57.592Z,100024.09
2023-03-28T20:03:31.516Z,100024.34
2023-03-28T20:06:12.849Z,100023.63
2023-03-28T20:08:44.600Z,100019.47
2023-03-28T20:11:17.165Z,100020.63
2023-03-28T20:13:49.110Z,100029.31
2023-03-28T20:16:21.308Z,100026.13
2023-03-28T20:18:55.265Z,100025.28
2023-03-28T20:21:31.113Z,100023.59
2023-03-28T20:24:04.410Z,100023.97
2023-03-28T20:26:36.795Z,100026.00
2023-03-28T20:29:13.734Z,100024.44
2023-03-28T20:31:48.508Z,100019.19
2023-03-28T20:34:21.716Z,100018.59
2023-03-28T20:36:56.572Z,100023.47
2023-03-28T20:39:33.980Z,100013.34
2023-03-28T20:42:06.691Z,100019.53
2023-03-28T20:44:38.602Z,100020.38
2023-03-28T20:47:18.666Z,100023.19
2023-03-28T20:49:56.925Z,100020.44
2023-03-28T20:52:30.737Z,100018.19
2023-03-28T20:55:02.561Z,100013.88
2023-03-28T20:57:41.015Z,100008.84
2023-03-28T21:00:14.909Z,100008.84
2023-03-28T21:02:53.770Z,100000.50
2023-03-28T21:05:27.589Z,100005.75
2023-03-28T21:08:04.342Z,100000.03
2023-03-28T21:10:42.026Z,100002.16
2023-03-28T21:13:16.680Z,100004.13
2023-03-28T21:15:51.670Z,100005.31
2023-03-28T21:18:24.005Z,100005.44
2023-03-28T21:20:58.067Z,99994.38
2023-03-28T21:23:32.669Z,99981.63
2023-03-28T21:26:08.538Z,99993.75
2023-03-28T21:28:40.816Z,99973.78
2023-03-28T21:31:15.632Z,99978.41
2023-03-28T21:33:48.290Z,99975.09
2023-03-28T21:36:20.805Z,99978.75
2023-03-28T21:38:53.048Z,99969.47
2023-03-28T21:41:29.257Z,99977.50
2023-03-28T21:44:03.831Z,99969.06
2023-03-28T21:46:36.464Z,99969.69
2023-03-28T21:49:08.321Z,99959.94
2023-03-28T21:51:43.168Z,99973.63
2023-03-28T21:54:15.410Z,99966.50
2023-03-28T21:56:47.225Z,99967.34
2023-03-28T21:59:19.071Z,99963.66
2023-03-28T22:01:50.836Z,99960.66
2023-03-28T22:04:28.376Z,99966.22
2023-03-28T22:07:03.056Z,99963.50
2023-03-28T22:09:35.957Z,99963.84
2023-03-28T22:12:10.268Z,99964.06
2023-03-28T22:14:42.392Z,99956.56
2023-03-28T22:17:14.527Z,99953.44
2023-03-28T22:19:47.252Z,99957.34
2023-03-28T22:22:19.062Z,99954.00
2023-03-28T22:24:53.613Z,99954.84
2023-03-28T22:27:31.405Z,99946.91
2023-03-28T22:30:03.529Z,99943.34
2023-03-28T22:32:35.917Z,99937.28
2023-03-28T22:35:08.644Z,99931.22
2023-03-28T22:37:40.358Z,99928.09
2023-03-28T22:40:12.893Z,99930.81
2023-03-28T22:42:45.235Z,99920.47
2023-03-28T22:45:16.992Z,99922.50
2023-03-28T22:47:51.654Z,99925.44
2023-03-28T22:50:24.706Z,99919.97
2023-03-28T22:52:56.428Z,99918.31
2023-03-28T22:55:28.439Z,99913.31
2023-03-28T22:58:00.198Z,99919.94
2023-03-28T23:00:32.500Z,99919.19
2023-03-28T23:03:04.318Z,99915.38
2023-03-28T23:05:42.635Z,99920.06
2023-03-28T23:08:15.255Z,99919.22
2023-03-28T23:10:47.352Z,99921.84
2023-03-28T23:13:19.202Z,99913.31
2023-03-28T23:15:51.407Z,99913.31
2023-03-28T23:18:23.144Z,99911.63
2023-03-28T23:20:54.857Z,99917.69
2023-03-28T23:23:27.266Z,99913.31
2023-03-28T23:26:01.622Z,99910.69
2023-03-28T23:28:33.387Z,99900.25
2023-03-28T23:31:06.296Z,99905.66
2023-03-28T23:33:38.097Z,99905.66
2023-03-28T23:36:10.094Z,99899.13
2023-03-28T23:38:41.867Z,99896.50
2023-03-28T23:41:14.296Z,99897.56
2023-03-28T23:43:46.447Z,99903.94
2023-03-28T23:46:21.544Z,99899.03
2023-03-28T23:48:53.393Z,99895.72
2023-03-28T23:51:31.162Z,99904.38
2023-03-28T23:54:03.302Z,99902.72
2023-03-28T23:56:38.023Z,99898.44
2023-03-28T23:59:09.816Z,99896.66
